Time;durP1;ratioP1;P1;durP2;ratioP2;P2;SDS_P1;SDS_P2;PMS_P1;PMS_P2;Temp;Humidity;BMP_temperature;BMP_pressure;BME280_temperature;BME280_humidity;BME280_pressure;Samples;Min_cycle;Max_cycle;Signal;HPM_P1;HPM_P2
2022/11/26 00:00:50;;;;;;;5.15;3.70;;;;;;;;;;6245143;23;20173;-87
2022/11/26 00:03:18;;;;;;;3.08;2.20;;;;;;;;;;6244607;23;20257;-86
2022/11/26 00:05:48;;;;;;;4.07;2.75;;;;;;;;;;6244820;23;20193;-86
2022/11/26 00:08:20;;;;;;;3.20;2.63;;;;;;;;;;6245040;23;20548;-87
2022/11/26 00:10:50;;;;;;;4.22;2.60;;;;;;;;;;6245212;23;20236;-87
2022/11/26 00:13:21;;;;;;;8.88;3.65;;;;;;;;;;6244833;23;20587;-87
2022/11/26 00:15:49;;;;;;;3.30;2.80;;;;;;;;;;6245256;23;20251;-87
2022/11/26 00:18:17;;;;;;;5.72;2.92;;;;;;;;;;6245933;23;20247;-87
2022/11/26 00:20:46;;;;;;;3.25;2.58;;;;;;;;;;6246638;23;20264;-87
2022/11/26 00:23:20;;;;;;;3.95;2.90;;;;;;;;;;6246891;23;20208;-88
2022/11/26 00:25:50;;;;;;;4.97;2.85;;;;;;;;;;6247132;23;20154;-88
2022/11/26 00:28:27;;;;;;;3.78;2.80;;;;;;;;;;6246467;23;20539;-87
2022/11/26 00:30:56;;;;;;;6.13;3.83;;;;;;;;;;6246565;23;20161;-88
2022/11/26 00:33:24;;;;;;;7.40;4.10;;;;;;;;;;6246162;23;20544;-87
2022/11/26 00:35:54;;;;;;;9.57;3.95;;;;;;;;;;6246351;23;20220;-88
2022/11/26 00:38:22;;;;;;;2.53;2.30;;;;;;;;;;6246152;23;20169;-87
2022/11/26 00:40:50;;;;;;;2.92;2.20;;;;;;;;;;6246480;23;20165;-87
2022/11/26 00:43:18;;;;;;;3.78;3.08;;;;;;;;;;6246304;23;20184;-87
2022/11/26 00:45:49;;;;;;;4.75;2.88;;;;;;;;;;6246811;23;20200;-87
2022/11/26 00:48:18;;;;;;;5.30;3.97;;;;;;;;;;6246699;23;20161;-86
2022/11/26 00:50:49;;;;;;;7.82;3.88;;;;;;;;;;6246818;23;20231;-87
2022/11/26 00:53:20;;;;;;;5.25;2.92;;;;;;;;;;6246139;23;20898;-87
2022/11/26 00:55:49;;;;;;;4.90;3.40;;;;;;;;;;6246727;23;20162;-87
2022/11/26 00:58:24;;;;;;;7.07;3.40;;;;;;;;;;6246060;23;20471;-88
2022/11/26 01:00:55;;;;;;;5.80;3.45;;;;;;;;;;6246237;23;20188;-87
2022/11/26 01:03:23;;;;;;;2.63;2.42;;;;;;;;;;6245812;23;20181;-88
2022/11/26 01:05:52;;;;;;;4.70;3.10;;;;;;;;;;6245877;23;20173;-87
2022/11/26 01:08:29;;;;;;;4.82;4.38;;;;;;;;;;6246358;23;20261;-88
2022/11/26 01:10:56;;;;;;;4.95;2.80;;;;;;;;;;6246787;23;20546;-87
2022/11/26 01:13:24;;;;;;;5.47;2.85;;;;;;;;;;6246024;23;20276;-87
2022/11/26 01:15:53;;;;;;;3.95;3.50;;;;;;;;;;6246467;23;20719;-88
2022/11/26 01:18:21;;;;;;;6.45;3.90;;;;;;;;;;6246380;23;20242;-87
2022/11/26 01:20:49;;;;;;;5.65;3.50;;;;;;;;;;6246099;23;20573;-87
2022/11/26 01:23:19;;;;;;;3.80;3.45;;;;;;;;;;6245858;23;20188;-87
2022/11/26 01:25:47;;;;;;;4.15;3.50;;;;;;;;;;6246100;23;20651;-88
2022/11/26 01:28:18;;;;;;;10.90;4.40;;;;;;;;;;6245760;23;20323;-88
2022/11/26 01:30:48;;;;;;;3.78;3.38;;;;;;;;;;6246310;23;20189;-87
2022/11/26 01:33:17;;;;;;;7.68;3.00;;;;;;;;;;6245908;23;20216;-87
2022/11/26 01:35:45;;;;;;;3.58;3.22;;;;;;;;;;6246110;23;20264;-87
2022/11/26 01:38:14;;;;;;;7.30;3.80;;;;;;;;;;6245766;23;20212;-87
2022/11/26 01:41:07;;;;;;;6.63;4.72;;;;;;;;;;6246180;23;20351;-87
2022/11/26 01:43:40;;;;;;;10.98;4.50;;;;;;;;;;6245511;23;20742;-88
2022/11/26 01:46:15;;;;;;;3.13;2.83;;;;;;;;;;6245687;23;20180;-87
2022/11/26 01:48:45;;;;;;;4.75;3.70;;;;;;;;;;6245881;23;20549;-87
2022/11/26 01:51:14;;;;;;;4.50;3.80;;;;;;;;;;6246077;23;20173;-86
2022/11/26 01:53:48;;;;;;;4.22;3.00;;;;;;;;;;6245943;23;20601;-86
2022/11/26 01:56:22;;;;;;;3.90;3.20;;;;;;;;;;6246079;23;20256;-88
2022/11/26 01:58:53;;;;;;;7.65;4.72;;;;;;;;;;6245739;23;20245;-87
2022/11/26 02:01:21;;;;;;;4.28;2.90;;;;;;;;;;6246053;23;20208;-87
2022/11/26 02:03:58;;;;;;;8.68;4.57;;;;;;;;;;6245390;23;20524;-87
2022/11/26 02:06:32;;;;;;;7.07;3.88;;;;;;;;;;6245943;23;20192;-88
2022/11/26 02:09:01;;;;;;;9.73;4.00;;;;;;;;;;6245296;23;20181;-86
2022/11/26 02:11:29;;;;;;;4.88;2.97;;;;;;;;;;6245791;23;20204;-88
2022/11/26 02:14:01;;;;;;;5.25;3.03;;;;;;;;;;6245216;23;20675;-87
2022/11/26 02:17:05;;;;;;;5.72;3.28;;;;;;;;;;6245842;23;20236;-86
2022/11/26 02:20:12;;;;;;;6.50;3.88;;;;;;;;;;6245775;23;20268;-88
2022/11/26 02:23:24;;;;;;;9.35;3.90;;;;;;;;;;6245879;23;20189;-88
2022/11/26 02:26:18;;;;;;;5.22;3.45;;;;;;;;;;6245472;23;20306;-88
2022/11/26 02:29:14;;;;;;;7.57;3.65;;;;;;;;;;6245814;23;20592;-86
2022/11/26 02:31:47;;;;;;;4.22;2.90;;;;;;;;;;6245473;23;20200;-87
2022/11/26 02:34:21;;;;;;;6.85;3.35;;;;;;;;;;6245048;23;20280;-87
2022/11/26 02:36:54;;;;;;;6.38;3.30;;;;;;;;;;6245723;23;20489;-88
2022/11/26 02:39:24;;;;;;;8.52;4.15;;;;;;;;;;6245313;23;20219;-87
2022/11/26 02:41:55;;;;;;;5.95;3.20;;;;;;;;;;6245016;23;20224;-87
2022/11/26 02:44:25;;;;;;;5.00;3.13;;;;;;;;;;6245109;23;20264;-88
2022/11/26 02:46:58;;;;;;;2.35;2.10;;;;;;;;;;6245274;23;20196;-88
2022/11/26 02:49:27;;;;;;;4.88;2.67;;;;;;;;;;6244828;23;20247;-87
2022/11/26 02:51:56;;;;;;;5.25;2.40;;;;;;;;;;6245554;23;20256;-88
2022/11/26 02:54:25;;;;;;;2.22;1.98;;;;;;;;;;6245112;23;20292;-87
2022/11/26 02:56:53;;;;;;;2.17;1.92;;;;;;;;;;6245339;23;20189;-88
2022/11/26 02:59:21;;;;;;;2.13;1.70;;;;;;;;;;6244874;23;20850;-88
2022/11/26 03:01:55;;;;;;;9.98;2.13;;;;;;;;;;6245243;23;20244;-88
2022/11/26 03:04:25;;;;;;;3.30;2.45;;;;;;;;;;6245192;23;20259;-87
2022/11/26 03:06:53;;;;;;;1.70;1.60;;;;;;;;;;6245540;23;20158;-88
2022/11/26 03:09:23;;;;;;;4.55;2.72;;;;;;;;;;6245063;23;20252;-88
2022/11/26 03:11:51;;;;;;;2.13;1.92;;;;;;;;;;6245117;23;20248;-88
2022/11/26 03:14:18;;;;;;;3.65;2.63;;;;;;;;;;6245186;23;20228;-88
2022/11/26 03:16:46;;;;;;;6.03;2.90;;;;;;;;;;6245401;23;20183;-88
2022/11/26 03:19:15;;;;;;;9.07;3.33;;;;;;;;;;6245081;23;20563;-88
2022/11/26 03:21:42;;;;;;;3.83;2.70;;;;;;;;;;6245387;23;20204;-88
2022/11/26 03:24:10;;;;;;;7.40;4.40;;;;;;;;;;6245227;23;20228;-87
2022/11/26 03:26:37;;;;;;;4.93;3.17;;;;;;;;;;6245272;23;20251;-88
2022/11/26 03:29:05;;;;;;;6.63;3.13;;;;;;;;;;6244720;23;20210;-88
2022/11/26 03:31:32;;;;;;;5.78;2.58;;;;;;;;;;6245445;23;20254;-88
2022/11/26 03:34:00;;;;;;;2.55;2.15;;;;;;;;;;6245365;23;20266;-88
2022/11/26 03:36:29;;;;;;;4.00;2.30;;;;;;;;;;6244946;23;20250;-88
2022/11/26 03:38:57;;;;;;;2.13;1.70;;;;;;;;;;6244755;23;20308;-87
2022/11/26 03:41:24;;;;;;;6.43;2.50;;;;;;;;;;6244885;23;20558;-87
2022/11/26 03:43:52;;;;;;;6.60;2.63;;;;;;;;;;6244429;23;20693;-87
2022/11/26 03:46:19;;;;;;;1.88;1.65;;;;;;;;;;6245360;23;20244;-88
2022/11/26 03:48:47;;;;;;;3.72;1.85;;;;;;;;;;6244551;23;20181;-88
2022/11/26 03:51:14;;;;;;;2.22;2.03;;;;;;;;;;6244811;23;20236;-88
2022/11/26 03:53:43;;;;;;;3.33;1.85;;;;;;;;;;6246949;23;20278;-87
2022/11/26 03:56:11;;;;;;;3.38;1.90;;;;;;;;;;6246763;23;20224;-87
2022/11/26 03:58:38;;;;;;;7.47;2.50;;;;;;;;;;6246482;23;20244;-88
2022/11/26 04:01:09;;;;;;;2.38;2.15;;;;;;;;;;6247116;23;20255;-87
2022/11/26 04:03:37;;;;;;;2.05;1.75;;;;;;;;;;6246670;23;20713;-88
2022/11/26 04:06:05;;;;;;;2.53;1.80;;;;;;;;;;6246686;23;20173;-88
2022/11/26 04:08:33;;;;;;;5.15;1.27;;;;;;;;;;6247090;23;20205;-88
2022/11/26 04:11:02;;;;;;;4.75;2.08;;;;;;;;;;6246708;23;20240;-88
2022/11/26 04:13:29;;;;;;;6.10;1.65;;;;;;;;;;6246707;23;20540;-87
2022/11/26 04:15:57;;;;;;;1.92;1.65;;;;;;;;;;6247132;23;20691;-88
2022/11/26 04:18:28;;;;;;;3.67;2.47;;;;;;;;;;6246463;23;20240;-88
2022/11/26 04:20:56;;;;;;;2.08;1.88;;;;;;;;;;6246897;23;20544;-88
2022/11/26 04:23:23;;;;;;;2.65;2.03;;;;;;;;;;6246910;23;20173;-89
2022/11/26 04:25:51;;;;;;;4.15;2.00;;;;;;;;;;6247142;23;20255;-88
2022/11/26 04:28:20;;;;;;;3.13;2.63;;;;;;;;;;6246772;23;20660;-88
2022/11/26 04:30:47;;;;;;;2.70;2.05;;;;;;;;;;6246758;23;20184;-88
2022/11/26 04:33:21;;;;;;;6.57;2.22;;;;;;;;;;6246930;23;20192;-88
2022/11/26 04:35:49;;;;;;;3.25;1.58;;;;;;;;;;6246852;23;20219;-88
2022/11/26 04:38:17;;;;;;;1.75;1.63;;;;;;;;;;6246402;23;20162;-89
2022/11/26 04:40:44;;;;;;;4.72;1.55;;;;;;;;;;6247041;23;20200;-88
2022/11/26 04:43:12;;;;;;;2.67;1.63;;;;;;;;;;6246486;22;20588;-89
2022/11/26 04:45:41;;;;;;;2.42;1.98;;;;;;;;;;6246892;23;20207;-89
2022/11/26 04:48:14;;;;;;;2.95;1.90;;;;;;;;;;6246806;23;20241;-88
2022/11/26 04:50:42;;;;;;;3.83;2.28;;;;;;;;;;6246752;23;20233;-88
2022/11/26 04:53:10;;;;;;;3.35;1.80;;;;;;;;;;6246256;23;20179;-89
2022/11/26 04:55:37;;;;;;;2.05;1.35;;;;;;;;;;6246301;23;20761;-88
2022/11/26 04:58:06;;;;;;;2.72;2.13;;;;;;;;;;6245871;23;20563;-87
2022/11/26 05:00:36;;;;;;;4.90;2.10;;;;;;;;;;6246788;23;20157;-88
2022/11/26 05:03:05;;;;;;;3.78;1.60;;;;;;;;;;6246127;23;20232;-88
2022/11/26 05:05:32;;;;;;;1.75;1.42;;;;;;;;;;6246535;23;20197;-88
2022/11/26 05:08:00;;;;;;;3.88;2.67;;;;;;;;;;6246305;23;20208;-88
2022/11/26 05:10:27;;;;;;;4.50;2.10;;;;;;;;;;6246662;23;20254;-88
2022/11/26 05:12:55;;;;;;;2.95;2.10;;;;;;;;;;6246337;23;20584;-88
2022/11/26 05:15:22;;;;;;;3.42;1.80;;;;;;;;;;6246097;23;20276;-88
2022/11/26 05:17:50;;;;;;;3.63;2.53;;;;;;;;;;6245944;23;20255;-88
2022/11/26 05:20:19;;;;;;;4.82;2.38;;;;;;;;;;6246384;23;20256;-88
2022/11/26 05:22:47;;;;;;;2.42;1.98;;;;;;;;;;6246057;23;20240;-89
2022/11/26 05:25:14;;;;;;;5.20;2.35;;;;;;;;;;6245959;23;20259;-88
2022/11/26 05:27:42;;;;;;;4.90;2.08;;;;;;;;;;6246226;23;20196;-88
2022/11/26 05:30:17;;;;;;;6.28;1.80;;;;;;;;;;6246177;23;20170;-88
2022/11/26 05:32:45;;;;;;;2.85;1.80;;;;;;;;;;6246472;23;20192;-88
2022/11/26 05:35:12;;;;;;;3.20;1.98;;;;;;;;;;6245824;23;20205;-88
2022/11/26 05:37:44;;;;;;;3.40;2.00;;;;;;;;;;6245980;23;20177;-88
2022/11/26 05:40:12;;;;;;;4.82;1.77;;;;;;;;;;6245988;23;20185;-87
2022/11/26 05:42:40;;;;;;;3.15;1.80;;;;;;;;;;6246834;23;20252;-92
2022/11/26 05:45:09;;;;;;;2.35;1.83;;;;;;;;;;6246733;23;20404;-91
2022/11/26 05:47:36;;;;;;;4.60;2.40;;;;;;;;;;6246665;23;20224;-92
2022/11/26 05:50:05;;;;;;;1.90;1.77;;;;;;;;;;6246849;23;20195;-92
2022/11/26 05:52:33;;;;;;;3.10;2.25;;;;;;;;;;6246786;23;20188;-91
2022/11/26 05:55:02;;;;;;;3.67;2.65;;;;;;;;;;6246622;23;20264;-91
2022/11/26 05:57:29;;;;;;;2.30;2.03;;;;;;;;;;6246817;23;20232;-92
2022/11/26 06:00:13;;;;;;;3.50;1.85;;;;;;;;;;6246763;23;20244;-92
2022/11/26 06:02:59;;;;;;;3.08;1.88;;;;;;;;;;6247156;23;20169;-91
2022/11/26 06:05:43;;;;;;;2.60;2.30;;;;;;;;;;6246644;23;20201;-91
2022/11/26 06:08:15;;;;;;;2.22;1.70;;;;;;;;;;6246679;23;20188;-91
2022/11/26 06:10:45;;;;;;;2.47;1.52;;;;;;;;;;6250419;23;20656;-91
2022/11/26 06:13:13;;;;;;;1.77;1.67;;;;;;;;;;6249388;23;20169;-92
2022/11/26 06:15:40;;;;;;;2.58;2.05;;;;;;;;;;6250181;23;20169;-92
2022/11/26 06:18:08;;;;;;;2.10;2.00;;;;;;;;;;6249666;23;20248;-90
2022/11/26 06:20:36;;;;;;;2.33;1.98;;;;;;;;;;6249330;23;20196;-92
2022/11/26 06:23:04;;;;;;;3.47;2.58;;;;;;;;;;6248324;23;20197;-91
2022/11/26 06:25:31;;;;;;;1.70;1.50;;;;;;;;;;6246565;23;20188;-91
2022/11/26 06:28:00;;;;;;;3.90;2.28;;;;;;;;;;6247108;23;20188;-91
2022/11/26 06:30:28;;;;;;;2.15;1.92;;;;;;;;;;6249998;23;20943;-92
2022/11/26 06:32:56;;;;;;;2.75;2.45;;;;;;;;;;6248990;23;20189;-92
2022/11/26 06:35:23;;;;;;;2.63;2.20;;;;;;;;;;6247711;23;20212;-91
2022/11/26 06:37:51;;;;;;;4.68;2.20;;;;;;;;;;6248212;23;20188;-91
2022/11/26 06:40:20;;;;;;;2.53;2.28;;;;;;;;;;6248856;23;20197;-92
2022/11/26 06:42:51;;;;;;;2.05;1.85;;;;;;;;;;6250396;22;20251;-92
2022/11/26 06:45:21;;;;;;;2.55;1.70;;;;;;;;;;6250083;23;20200;-92
2022/11/26 06:47:51;;;;;;;4.50;2.00;;;;;;;;;;6255725;23;20185;-92
2022/11/26 06:50:21;;;;;;;2.40;2.20;;;;;;;;;;6252295;23;20184;-90
2022/11/26 06:52:52;;;;;;;2.17;1.90;;;;;;;;;;6247796;23;20193;-91
2022/11/26 06:55:19;;;;;;;1.90;1.58;;;;;;;;;;6247552;23;20193;-91
2022/11/26 06:57:51;;;;;;;4.85;2.75;;;;;;;;;;6248353;23;20217;-92
2022/11/26 07:00:21;;;;;;;6.63;3.45;;;;;;;;;;6249861;23;20165;-92
2022/11/26 07:02:49;;;;;;;5.43;2.80;;;;;;;;;;6250519;23;20173;-91
2022/11/26 07:05:16;;;;;;;5.93;3.10;;;;;;;;;;6251931;23;20236;-92
2022/11/26 07:08:03;;;;;;;7.68;3.78;;;;;;;;;;6252799;23;20207;-92
2022/11/26 07:10:30;;;;;;;6.70;4.20;;;;;;;;;;6251177;23;20167;-92
2022/11/26 07:12:59;;;;;;;3.15;2.33;;;;;;;;;;6251096;23;20173;-91
2022/11/26 07:15:28;;;;;;;3.25;2.97;;;;;;;;;;6253207;23;20204;-91
2022/11/26 07:18:01;;;;;;;3.35;3.08;;;;;;;;;;6251844;23;20220;-91
2022/11/26 07:20:29;;;;;;;2.17;1.98;;;;;;;;;;6259410;23;20181;-91
2022/11/26 07:22:57;;;;;;;4.95;3.50;;;;;;;;;;6257145;23;20172;-91
2022/11/26 07:25:24;;;;;;;5.35;4.15;;;;;;;;;;6250408;23;20193;-90
2022/11/26 07:27:52;;;;;;;2.60;2.35;;;;;;;;;;6245574;23;20196;-90
2022/11/26 07:30:19;;;;;;;3.13;2.45;;;;;;;;;;6246098;23;20256;-90
2022/11/26 07:32:48;;;;;;;2.42;2.20;;;;;;;;;;6246034;23;20169;-90
2022/11/26 07:35:16;;;;;;;2.42;2.22;;;;;;;;;;6245326;23;20201;-89
2022/11/26 07:37:44;;;;;;;5.65;3.03;;;;;;;;;;6246647;23;20208;-90
2022/11/26 07:40:13;;;;;;;5.30;3.00;;;;;;;;;;6245887;23;20169;-90
2022/11/26 07:42:41;;;;;;;3.40;3.05;;;;;;;;;;6246918;23;20196;-90
2022/11/26 07:45:09;;;;;;;3.85;1.90;;;;;;;;;;6250278;23;20579;-88
2022/11/26 07:47:37;;;;;;;2.80;2.05;;;;;;;;;;6248446;23;20180;-90
2022/11/26 07:50:16;;;;;;;2.72;2.38;;;;;;;;;;6254811;23;20204;-91
2022/11/26 07:52:44;;;;;;;2.30;1.95;;;;;;;;;;6263870;23;20227;-91
2022/11/26 07:55:12;;;;;;;1.67;1.58;;;;;;;;;;6249992;23;20686;-89
2022/11/26 07:57:39;;;;;;;2.22;1.67;;;;;;;;;;6248316;23;20208;-90
2022/11/26 08:00:09;;;;;;;1.90;1.80;;;;;;;;;;6245884;23;20169;-91
2022/11/26 08:02:36;;;;;;;1.70;1.60;;;;;;;;;;6249032;23;20650;-90
2022/11/26 08:05:04;;;;;;;4.78;3.33;;;;;;;;;;6245595;23;20263;-88
2022/11/26 08:07:35;;;;;;;2.22;2.03;;;;;;;;;;6247731;23;20321;-90
2022/11/26 08:10:03;;;;;;;2.58;2.38;;;;;;;;;;6247221;23;20181;-90
2022/11/26 08:12:30;;;;;;;2.97;2.70;;;;;;;;;;6247770;23;20176;-90
2022/11/26 08:15:07;;;;;;;2.50;2.30;;;;;;;;;;6247334;23;20711;-90
2022/11/26 08:17:35;;;;;;;3.67;3.38;;;;;;;;;;6251515;23;20201;-91
2022/11/26 08:20:03;;;;;;;3.10;2.90;;;;;;;;;;6253186;23;20177;-91
2022/11/26 08:22:33;;;;;;;3.58;3.38;;;;;;;;;;6261758;23;20172;-91
2022/11/26 08:25:11;;;;;;;4.00;3.70;;;;;;;;;;6260709;23;20193;-91
2022/11/26 08:31:54;;;;;;;4.95;4.07;;;;;;;;;;6211110;23;20172;-91
2022/11/26 08:35:28;;;;;;;2.55;2.45;;;;;;;;;;6261509;23;20193;-92
2022/11/26 08:38:17;;;;;;;2.60;2.40;;;;;;;;;;6264995;23;20189;-92
2022/11/26 08:51:37;;;;;;;3.63;3.33;;;;;;;;;;6219196;23;20169;-91
2022/11/26 08:55:16;;;;;;;3.65;3.35;;;;;;;;;;6273190;22;20232;-92
2022/11/26 09:01:19;;;;;;;2.97;2.78;;;;;;;;;;6133755;23;20199;-92
2022/11/26 09:03:49;;;;;;;4.43;3.70;;;;;;;;;;6270797;22;20177;-93
2022/11/26 09:07:03;;;;;;;3.80;3.50;;;;;;;;;;6267070;22;20153;-94
2022/11/26 09:09:31;;;;;;;3.40;3.20;;;;;;;;;;6260815;23;20165;-92
2022/11/26 09:12:02;;;;;;;2.70;2.50;;;;;;;;;;6261763;23;20189;-91
2022/11/26 09:14:36;;;;;;;3.00;2.80;;;;;;;;;;6263559;23;20200;-91
2022/11/26 09:17:05;;;;;;;2.58;2.38;;;;;;;;;;6253288;23;20176;-90
2022/11/26 09:19:33;;;;;;;3.08;2.88;;;;;;;;;;6247516;23;20267;-87
2022/11/26 09:22:02;;;;;;;3.22;2.97;;;;;;;;;;6247460;23;20519;-87
2022/11/26 09:24:29;;;;;;;4.22;3.88;;;;;;;;;;6247110;23;20212;-89
2022/11/26 09:26:57;;;;;;;4.32;3.95;;;;;;;;;;6246903;23;20244;-90
2022/11/26 09:29:25;;;;;;;5.28;4.07;;;;;;;;;;6247423;23;20208;-88
2022/11/26 09:31:54;;;;;;;4.55;4.15;;;;;;;;;;6247423;23;20173;-88
2022/11/26 09:34:21;;;;;;;3.20;3.00;;;;;;;;;;6248429;23;20593;-90
2022/11/26 09:37:05;;;;;;;5.15;4.47;;;;;;;;;;6248911;23;20181;-90
2022/11/26 09:39:32;;;;;;;4.25;3.90;;;;;;;;;;6255648;23;20741;-89
2022/11/26 09:42:06;;;;;;;2.85;2.65;;;;;;;;;;6255248;22;20184;-90
2022/11/26 09:44:54;;;;;;;2.92;2.72;;;;;;;;;;6250174;23;20224;-91
2022/11/26 09:47:31;;;;;;;3.90;3.60;;;;;;;;;;6250975;23;20177;-89
2022/11/26 09:50:07;;;;;;;5.63;4.65;;;;;;;;;;6252096;23;20632;-89
2022/11/26 09:52:38;;;;;;;5.30;4.80;;;;;;;;;;6249619;23;20172;-89
2022/11/26 09:55:16;;;;;;;4.63;4.22;;;;;;;;;;6249158;23;20196;-87
2022/11/26 09:57:46;;;;;;;5.72;5.18;;;;;;;;;;6247467;23;20244;-87
2022/11/26 10:00:34;;;;;;;4.75;4.25;;;;;;;;;;6246593;23;20196;-87
2022/11/26 10:03:18;;;;;;;4.78;4.40;;;;;;;;;;6247311;23;20192;-89
2022/11/26 10:05:56;;;;;;;4.38;3.97;;;;;;;;;;6246620;23;20169;-89
2022/11/26 10:08:55;;;;;;;4.18;3.78;;;;;;;;;;6246953;23;20175;-89
2022/11/26 10:11:33;;;;;;;2.90;2.70;;;;;;;;;;6247767;23;20173;-89
2022/11/26 10:14:54;;;;;;;3.95;3.65;;;;;;;;;;6246259;23;20193;-89
2022/11/26 10:17:34;;;;;;;5.45;4.93;;;;;;;;;;6243805;23;20175;-90
2022/11/26 10:20:42;;;;;;;4.03;3.72;;;;;;;;;;6245878;23;20512;-88
2022/11/26 10:23:20;;;;;;;5.13;4.63;;;;;;;;;;6246454;23;20554;-88
2022/11/26 10:25:54;;;;;;;4.32;4.03;;;;;;;;;;6245886;23;20180;-88
2022/11/26 10:28:26;;;;;;;3.63;3.22;;;;;;;;;;6245378;23;20192;-89
2022/11/26 10:31:00;;;;;;;3.50;3.20;;;;;;;;;;6246392;23;20181;-89
2022/11/26 10:33:31;;;;;;;3.83;3.53;;;;;;;;;;6246369;23;20185;-89
2022/11/26 10:36:00;;;;;;;4.25;3.90;;;;;;;;;;6246292;23;20169;-88
2022/11/26 10:38:27;;;;;;;4.88;4.47;;;;;;;;;;6246184;23;20312;-88
2022/11/26 10:41:08;;;;;;;4.80;4.30;;;;;;;;;;6245649;23;20193;-88
2022/11/26 10:43:38;;;;;;;4.43;4.03;;;;;;;;;;6245592;22;20200;-88
2022/11/26 10:46:06;;;;;;;4.95;4.47;;;;;;;;;;6246626;23;20236;-87
2022/11/26 10:48:35;;;;;;;4.07;3.78;;;;;;;;;;6246097;23;20193;-87
2022/11/26 10:51:13;;;;;;;3.75;3.42;;;;;;;;;;6246669;23;20181;-88
2022/11/26 10:53:52;;;;;;;4.80;4.30;;;;;;;;;;6246671;23;20267;-87
2022/11/26 10:56:31;;;;;;;4.65;4.25;;;;;;;;;;6246472;23;20619;-88
2022/11/26 10:59:04;;;;;;;3.95;3.65;;;;;;;;;;6245986;23;20193;-88
2022/11/26 11:01:59;;;;;;;5.45;4.95;;;;;;;;;;6248875;23;20168;-91
2022/11/26 11:04:39;;;;;;;4.18;3.88;;;;;;;;;;6246185;23;20690;-89
2022/11/26 11:07:30;;;;;;;3.53;3.20;;;;;;;;;;6246228;23;20165;-89
2022/11/26 11:10:06;;;;;;;3.08;2.85;;;;;;;;;;6246020;23;20556;-89
2022/11/26 11:13:14;;;;;;;3.80;3.47;;;;;;;;;;6245880;23;20215;-88
2022/11/26 11:15:54;;;;;;;2.92;2.72;;;;;;;;;;6245829;23;20236;-89
2022/11/26 11:18:34;;;;;;;;;;;;;;;;;;;;;
2022/11/26 11:21:15;;;;;;;2.88;2.67;;;;;;;;;;6245738;23;20169;-87
2022/11/26 11:23:59;;;;;;;4.15;3.70;;;;;;;;;;6245683;23;20189;-88
2022/11/26 11:26:47;;;;;;;3.45;3.25;;;;;;;;;;6245858;23;20486;-88
2022/11/26 11:29:35;;;;;;;4.18;3.85;;;;;;;;;;6246385;23;20176;-90
2022/11/26 11:32:11;;;;;;;3.33;3.13;;;;;;;;;;6244869;23;20224;-88
2022/11/26 11:34:52;;;;;;;4.05;3.65;;;;;;;;;;6246860;23;20535;-88
2022/11/26 11:37:22;;;;;;;3.40;3.10;;;;;;;;;;6246023;23;20168;-89
2022/11/26 11:40:24;;;;;;;3.08;2.88;;;;;;;;;;6245659;23;20518;-90
2022/11/26 11:42:55;;;;;;;3.75;3.45;;;;;;;;;;6245624;22;20185;-89
2022/11/26 11:45:38;;;;;;;4.35;3.97;;;;;;;;;;6246105;23;20188;-90
2022/11/26 11:48:16;;;;;;;4.53;4.05;;;;;;;;;;6250800;23;20622;-90
2022/11/26 11:50:47;;;;;;;5.60;5.10;;;;;;;;;;6245671;23;20171;-86
2022/11/26 11:53:35;;;;;;;4.60;4.18;;;;;;;;;;6245495;23;20509;-87
2022/11/26 11:56:21;;;;;;;5.35;4.60;;;;;;;;;;6249103;23;20185;-91
2022/11/26 11:59:20;;;;;;;4.75;4.28;;;;;;;;;;6246391;23;20169;-90
2022/11/26 12:02:02;;;;;;;3.70;3.40;;;;;;;;;;6247733;23;20189;-92
2022/11/26 12:04:52;;;;;;;4.90;4.40;;;;;;;;;;6246114;23;20225;-87
2022/11/26 12:07:37;;;;;;;4.78;4.35;;;;;;;;;;6246522;23;20188;-88
2022/11/26 12:10:13;;;;;;;4.13;3.50;;;;;;;;;;6246376;23;20158;-89
2022/11/26 12:12:46;;;;;;;6.43;5.75;;;;;;;;;;6246221;23;20172;-88
2022/11/26 12:15:23;;;;;;;5.80;5.30;;;;;;;;;;6249128;23;20189;-88
2022/11/26 12:17:56;;;;;;;5.35;4.95;;;;;;;;;;6247696;23;20173;-88
2022/11/26 12:20:43;;;;;;;4.60;4.20;;;;;;;;;;6247198;23;20208;-89
2022/11/26 12:23:27;;;;;;;4.35;3.95;;;;;;;;;;6248278;23;20614;-90
2022/11/26 12:25:58;;;;;;;3.65;3.35;;;;;;;;;;6250185;23;20666;-89
2022/11/26 12:28:30;;;;;;;4.88;4.38;;;;;;;;;;6247127;23;20506;-89
2022/11/26 12:31:02;;;;;;;4.22;3.83;;;;;;;;;;6246899;23;20165;-88
2022/11/26 12:37:01;;;;;;;4.18;3.88;;;;;;;;;;6247132;23;20209;-89
2022/11/26 12:39:53;;;;;;;3.80;3.50;;;;;;;;;;6247198;23;20167;-90
2022/11/26 12:42:51;;;;;;;3.72;3.42;;;;;;;;;;6246957;22;20623;-89
2022/11/26 12:45:38;;;;;;;3.47;3.20;;;;;;;;;;6246939;23;20270;-89
2022/11/26 12:52:02;;;;;;;4.55;3.92;;;;;;;;;;6247203;23;20533;-89
2022/11/26 12:54:50;;;;;;;7.13;4.90;;;;;;;;;;6246947;23;20189;-89
2022/11/26 12:57:28;;;;;;;4.93;3.88;;;;;;;;;;6247122;23;20660;-89
2022/11/26 13:00:05;;;;;;;3.33;3.03;;;;;;;;;;6246426;23;20188;-89
2022/11/26 13:02:37;;;;;;;4.22;3.83;;;;;;;;;;6246732;23;20165;-89
2022/11/26 13:05:06;;;;;;;5.00;4.47;;;;;;;;;;6246745;23;20193;-89
2022/11/26 13:07:58;;;;;;;4.53;4.13;;;;;;;;;;6246310;23;20223;-88
2022/11/26 13:10:45;;;;;;;3.90;3.60;;;;;;;;;;6246909;23;20219;-89
2022/11/26 13:13:28;;;;;;;3.00;2.78;;;;;;;;;;6246655;23;20227;-89
2022/11/26 13:16:07;;;;;;;3.95;3.38;;;;;;;;;;6246292;23;20230;-88
2022/11/26 13:18:54;;;;;;;3.42;3.20;;;;;;;;;;6246629;23;20172;-89
2022/11/26 13:21:43;;;;;;;4.00;3.70;;;;;;;;;;6246326;23;20745;-89
2022/11/26 13:24:46;;;;;;;4.65;4.20;;;;;;;;;;6246435;23;20216;-89
2022/11/26 13:27:52;;;;;;;5.05;4.60;;;;;;;;;;6247114;23;20177;-89
2022/11/26 13:30:43;;;;;;;3.97;3.67;;;;;;;;;;6246563;23;20161;-89
2022/11/26 13:34:02;;;;;;;8.40;5.80;;;;;;;;;;6246381;23;20239;-89
2022/11/26 13:37:14;;;;;;;3.63;3.33;;;;;;;;;;6246505;23;20598;-88
2022/11/26 13:40:16;;;;;;;6.10;5.00;;;;;;;;;;6182494;23;20505;-89
2022/11/26 13:43:39;;;;;;;3.70;3.40;;;;;;;;;;6246429;22;20259;-88
2022/11/26 13:46:37;;;;;;;6.22;4.28;;;;;;;;;;6246672;23;20172;-89
2022/11/26 13:49:33;;;;;;;7.53;6.05;;;;;;;;;;6246070;23;20244;-88
2022/11/26 13:52:39;;;;;;;6.32;5.43;;;;;;;;;;6246555;23;20244;-90
2022/11/26 13:55:24;;;;;;;5.03;4.45;;;;;;;;;;6246873;23;20655;-88
2022/11/26 13:58:36;;;;;;;4.65;4.35;;;;;;;;;;6246749;23;20177;-89
2022/11/26 14:01:46;;;;;;;5.55;4.90;;;;;;;;;;6246542;23;20224;-88
2022/11/26 14:04:53;;;;;;;6.28;5.55;;;;;;;;;;6248881;23;20192;-87
2022/11/26 14:07:21;;;;;;;5.70;5.15;;;;;;;;;;6248722;23;20515;-87
2022/11/26 14:09:55;;;;;;;5.65;4.95;;;;;;;;;;6248787;23;20177;-87
2022/11/26 14:12:24;;;;;;;3.47;3.20;;;;;;;;;;6249899;23;20158;-87
2022/11/26 14:14:52;;;;;;;3.50;3.20;;;;;;;;;;6249044;23;20705;-87
2022/11/26 14:17:29;;;;;;;3.50;3.20;;;;;;;;;;6249677;23;20189;-89
2022/11/26 14:20:12;;;;;;;3.65;3.35;;;;;;;;;;6247072;23;20191;-88
2022/11/26 14:22:48;;;;;;;3.38;3.08;;;;;;;;;;6246339;23;20161;-88
2022/11/26 14:25:25;;;;;;;2.92;2.70;;;;;;;;;;6246220;23;20188;-88
2022/11/26 14:27:58;;;;;;;6.55;5.80;;;;;;;;;;6246040;23;20161;-88
2022/11/26 14:34:14;;;;;;;7.28;5.45;;;;;;;;;;6246224;23;20710;-88
2022/11/26 14:37:06;;;;;;;5.75;4.05;;;;;;;;;;6245944;23;20180;-88
2022/11/26 14:40:01;;;;;;;4.43;4.03;;;;;;;;;;6245764;23;20247;-88
2022/11/26 14:42:40;;;;;;;3.40;3.10;;;;;;;;;;6244679;22;20216;-89
2022/11/26 14:46:15;;;;;;;5.80;4.32;;;;;;;;;;6245235;23;20212;-88
2022/11/26 14:48:45;;;;;;;5.97;5.38;;;;;;;;;;6245652;23;20671;-88
2022/11/26 14:51:16;;;;;;;8.02;7.30;;;;;;;;;;6246132;23;20245;-88
2022/11/26 14:53:48;;;;;;;10.05;7.28;;;;;;;;;;6245428;23;20541;-88
2022/11/26 14:56:17;;;;;;;8.25;7.35;;;;;;;;;;6245530;23;20236;-88
2022/11/26 14:58:47;;;;;;;6.50;5.90;;;;;;;;;;6245912;23;20236;-88
2022/11/26 15:01:21;;;;;;;6.82;6.18;;;;;;;;;;6245190;23;20527;-88
2022/11/26 15:03:58;;;;;;;8.15;7.32;;;;;;;;;;6245468;23;20197;-88
2022/11/26 15:06:32;;;;;;;7.15;6.38;;;;;;;;;;6245569;23;20161;-88
2022/11/26 15:09:13;;;;;;;9.48;7.47;;;;;;;;;;6245435;23;20637;-88
2022/11/26 15:11:50;;;;;;;7.50;6.68;;;;;;;;;;6245657;23;20161;-88
2022/11/26 15:14:23;;;;;;;7.32;6.50;;;;;;;;;;6245838;23;20220;-88
2022/11/26 15:17:05;;;;;;;7.85;6.95;;;;;;;;;;6245347;23;20243;-88
2022/11/26 15:19:35;;;;;;;6.13;5.35;;;;;;;;;;6245160;23;20196;-88
2022/11/26 15:22:07;;;;;;;6.95;5.65;;;;;;;;;;6245387;23;20566;-88
2022/11/26 15:24:36;;;;;;;6.50;5.90;;;;;;;;;;6245347;23;20209;-88
2022/11/26 15:27:04;;;;;;;8.80;7.35;;;;;;;;;;6245555;23;20248;-89
2022/11/26 15:29:35;;;;;;;5.97;5.47;;;;;;;;;;6245787;23;20177;-87
2022/11/26 15:32:03;;;;;;;8.90;7.47;;;;;;;;;;6245895;23;20193;-87
2022/11/26 15:34:32;;;;;;;8.52;7.70;;;;;;;;;;6245796;23;20527;-87
2022/11/26 15:37:00;;;;;;;8.20;6.55;;;;;;;;;;6245812;23;20169;-86
2022/11/26 15:39:30;;;;;;;7.20;6.20;;;;;;;;;;6245280;23;20560;-87
2022/11/26 15:42:04;;;;;;;5.93;5.30;;;;;;;;;;6245008;23;20268;-86
2022/11/26 15:44:33;;;;;;;5.65;5.05;;;;;;;;;;6245577;23;20503;-87
2022/11/26 15:47:02;;;;;;;6.32;5.57;;;;;;;;;;6245156;23;20624;-86
2022/11/26 15:49:33;;;;;;;7.35;6.13;;;;;;;;;;6247119;23;20157;-86
2022/11/26 15:52:05;;;;;;;11.27;7.72;;;;;;;;;;6247308;23;20195;-87
2022/11/26 15:54:34;;;;;;;6.40;5.80;;;;;;;;;;6247703;23;20228;-85
2022/11/26 15:57:06;;;;;;;6.90;5.88;;;;;;;;;;6247488;23;20227;-86
2022/11/26 15:59:42;;;;;;;6.28;5.68;;;;;;;;;;6247369;23;20632;-86